sensor_id;sensor_type;location;lat;lon;timestamp;P1;durP1;ratioP1;P2;durP2;ratioP2
37288;SDS011;23174;49.462;11.000;2023-09-08T00:01:30;1.80;;;1.10;;
37288;SDS011;23174;49.462;11.000;2023-09-08T00:03:31;1.55;;;1.42;;
37288;SDS011;23174;49.462;11.000;2023-09-08T00:05:31;3.38;;;1.95;;
37288;SDS011;23174;49.462;11.000;2023-09-08T00:07:32;1.92;;;1.13;;
37288;SDS011;23174;49.462;11.000;2023-09-08T00:09:32;7.35;;;2.17;;
37288;SDS011;23174;49.462;11.000;2023-09-08T00:11:33;3.00;;;2.13;;
37288;SDS011;23174;49.462;11.000;2023-09-08T00:13:33;0.75;;;0.68;;
37288;SDS011;23174;49.462;11.000;2023-09-08T00:15:34;3.50;;;1.85;;
37288;SDS011;23174;49.462;11.000;2023-09-08T00:17:35;1.42;;;1.38;;
37288;SDS011;23174;49.462;11.000;2023-09-08T00:19:36;0.90;;;0.90;;
37288;SDS011;23174;49.462;11.000;2023-09-08T00:21:38;2.45;;;1.48;;
37288;SDS011;23174;49.462;11.000;2023-09-08T00:23:38;3.25;;;1.80;;
37288;SDS011;23174;49.462;11.000;2023-09-08T00:25:39;1.30;;;1.20;;
37288;SDS011;23174;49.462;11.000;2023-09-08T00:27:40;5.15;;;2.97;;
37288;SDS011;23174;49.462;11.000;2023-09-08T00:29:40;0.60;;;0.60;;
37288;SDS011;23174;49.462;11.000;2023-09-08T00:31:41;1.20;;;1.10;;
37288;SDS011;23174;49.462;11.000;2023-09-08T00:33:42;2.17;;;1.98;;
37288;SDS011;23174;49.462;11.000;2023-09-08T00:35:44;0.63;;;0.63;;
37288;SDS011;23174;49.462;11.000;2023-09-08T00:37:45;0.93;;;0.93;;
37288;SDS011;23174;49.462;11.000;2023-09-08T00:39:45;1.30;;;1.20;;
37288;SDS011;23174;49.462;11.000;2023-09-08T00:41:46;1.58;;;1.48;;
37288;SDS011;23174;49.462;11.000;2023-09-08T00:43:46;1.30;;;1.00;;
37288;SDS011;23174;49.462;11.000;2023-09-08T00:45:47;0.60;;;0.60;;
37288;SDS011;23174;49.462;11.000;2023-09-08T00:47:48;1.25;;;1.15;;
37288;SDS011;23174;49.462;11.000;2023-09-08T00:49:48;1.63;;;1.33;;
37288;SDS011;23174;49.462;11.000;2023-09-08T00:51:51;3.85;;;1.40;;
37288;SDS011;23174;49.462;11.000;2023-09-08T00:53:51;1.05;;;0.40;;
37288;SDS011;23174;49.462;11.000;2023-09-08T00:55:53;0.30;;;0.30;;
37288;SDS011;23174;49.462;11.000;2023-09-08T00:57:54;1.33;;;1.23;;
37288;SDS011;23174;49.462;11.000;2023-09-08T00:59:56;1.98;;;1.83;;
37288;SDS011;23174;49.462;11.000;2023-09-08T01:01:57;0.70;;;0.70;;
37288;SDS011;23174;49.462;11.000;2023-09-08T01:03:57;2.17;;;1.50;;
37288;SDS011;23174;49.462;11.000;2023-09-08T01:05:58;2.15;;;0.57;;
37288;SDS011;23174;49.462;11.000;2023-09-08T01:07:59;1.20;;;1.20;;
37288;SDS011;23174;49.462;11.000;2023-09-08T01:10:01;2.70;;;1.65;;
37288;SDS011;23174;49.462;11.000;2023-09-08T01:12:06;1.10;;;0.80;;
37288;SDS011;23174;49.462;11.000;2023-09-08T01:14:07;2.05;;;0.95;;
37288;SDS011;23174;49.462;11.000;2023-09-08T01:16:08;1.30;;;1.23;;
37288;SDS011;23174;49.462;11.000;2023-09-08T01:18:08;2.70;;;1.13;;
37288;SDS011;23174;49.462;11.000;2023-09-08T01:20:19;2.17;;;1.98;;
37288;SDS011;23174;49.462;11.000;2023-09-08T01:25:02;1.88;;;1.27;;
37288;SDS011;23174;49.462;11.000;2023-09-08T01:27:20;1.33;;;0.88;;
37288;SDS011;23174;49.462;11.000;2023-09-08T01:29:23;0.95;;;0.95;;
37288;SDS011;23174;49.462;11.000;2023-09-08T01:31:25;0.75;;;0.65;;
37288;SDS011;23174;49.462;11.000;2023-09-08T01:33:26;1.50;;;1.40;;
37288;SDS011;23174;49.462;11.000;2023-09-08T01:35:27;0.55;;;0.55;;
37288;SDS011;23174;49.462;11.000;2023-09-08T01:37:27;0.77;;;0.77;;
37288;SDS011;23174;49.462;11.000;2023-09-08T01:39:28;0.57;;;0.45;;
37288;SDS011;23174;49.462;11.000;2023-09-08T01:41:28;1.38;;;0.80;;
37288;SDS011;23174;49.462;11.000;2023-09-08T01:43:31;0.30;;;0.30;;
37288;SDS011;23174;49.462;11.000;2023-09-08T01:45:31;0.57;;;0.57;;
37288;SDS011;23174;49.462;11.000;2023-09-08T01:47:32;0.50;;;0.50;;
37288;SDS011;23174;49.462;11.000;2023-09-08T01:49:33;0.65;;;0.65;;
37288;SDS011;23174;49.462;11.000;2023-09-08T01:51:33;0.28;;;0.28;;
37288;SDS011;23174;49.462;11.000;2023-09-08T01:53:34;0.50;;;0.50;;
37288;SDS011;23174;49.462;11.000;2023-09-08T01:55:34;0.63;;;0.63;;
37288;SDS011;23174;49.462;11.000;2023-09-08T01:57:34;4.22;;;0.82;;
37288;SDS011;23174;49.462;11.000;2023-09-08T01:59:35;1.20;;;0.95;;
37288;SDS011;23174;49.462;11.000;2023-09-08T02:01:37;2.60;;;0.45;;
37288;SDS011;23174;49.462;11.000;2023-09-08T02:03:37;1.13;;;1.02;;
37288;SDS011;23174;49.462;11.000;2023-09-08T02:05:37;0.25;;;0.25;;
37288;SDS011;23174;49.462;11.000;2023-09-08T02:07:39;0.95;;;0.95;;
37288;SDS011;23174;49.462;11.000;2023-09-08T02:09:40;1.00;;;0.77;;
37288;SDS011;23174;49.462;11.000;2023-09-08T02:11:42;0.60;;;0.60;;
37288;SDS011;23174;49.462;11.000;2023-09-08T02:13:42;1.05;;;0.50;;
37288;SDS011;23174;49.462;11.000;2023-09-08T02:15:43;0.55;;;0.55;;
37288;SDS011;23174;49.462;11.000;2023-09-08T02:17:43;0.63;;;0.63;;
37288;SDS011;23174;49.462;11.000;2023-09-08T02:19:44;0.88;;;0.88;;
37288;SDS011;23174;49.462;11.000;2023-09-08T02:21:44;0.63;;;0.63;;
37288;SDS011;23174;49.462;11.000;2023-09-08T02:23:45;0.55;;;0.55;;
37288;SDS011;23174;49.462;11.000;2023-09-08T02:25:45;0.28;;;0.28;;
37288;SDS011;23174;49.462;11.000;2023-09-08T02:27:46;0.85;;;0.55;;
37288;SDS011;23174;49.462;11.000;2023-09-08T02:29:46;0.45;;;0.45;;
37288;SDS011;23174;49.462;11.000;2023-09-08T02:31:47;1.38;;;1.13;;
37288;SDS011;23174;49.462;11.000;2023-09-08T02:33:47;10.65;;;0.85;;
37288;SDS011;23174;49.462;11.000;2023-09-08T02:35:48;0.80;;;0.80;;
37288;SDS011;23174;49.462;11.000;2023-09-08T02:37:48;0.70;;;0.50;;
37288;SDS011;23174;49.462;11.000;2023-09-08T02:39:49;0.35;;;0.35;;
37288;SDS011;23174;49.462;11.000;2023-09-08T02:41:49;0.93;;;0.77;;
37288;SDS011;23174;49.462;11.000;2023-09-08T02:43:49;0.55;;;0.50;;
37288;SDS011;23174;49.462;11.000;2023-09-08T02:45:50;5.78;;;1.85;;
37288;SDS011;23174;49.462;11.000;2023-09-08T02:47:50;0.65;;;0.65;;
37288;SDS011;23174;49.462;11.000;2023-09-08T02:49:51;0.55;;;0.55;;
37288;SDS011;23174;49.462;11.000;2023-09-08T02:51:51;0.28;;;0.28;;
37288;SDS011;23174;49.462;11.000;2023-09-08T02:53:52;0.63;;;0.63;;
37288;SDS011;23174;49.462;11.000;2023-09-08T02:55:52;0.30;;;0.30;;
37288;SDS011;23174;49.462;11.000;2023-09-08T02:57:53;0.70;;;0.70;;
37288;SDS011;23174;49.462;11.000;2023-09-08T02:59:53;3.63;;;1.05;;
37288;SDS011;23174;49.462;11.000;2023-09-08T03:01:56;2.38;;;2.17;;
37288;SDS011;23174;49.462;11.000;2023-09-08T03:03:56;4.45;;;3.63;;
37288;SDS011;23174;49.462;11.000;2023-09-08T03:05:57;5.68;;;3.88;;
37288;SDS011;23174;49.462;11.000;2023-09-08T03:08:03;6.05;;;4.18;;
37288;SDS011;23174;49.462;11.000;2023-09-08T03:10:05;4.72;;;3.85;;
37288;SDS011;23174;49.462;11.000;2023-09-08T03:12:06;8.07;;;4.05;;
37288;SDS011;23174;49.462;11.000;2023-09-08T03:14:06;4.78;;;4.25;;
37288;SDS011;23174;49.462;11.000;2023-09-08T03:16:08;5.10;;;4.38;;
37288;SDS011;23174;49.462;11.000;2023-09-08T03:18:08;5.00;;;4.25;;
37288;SDS011;23174;49.462;11.000;2023-09-08T03:20:09;5.10;;;4.25;;
37288;SDS011;23174;49.462;11.000;2023-09-08T03:22:10;4.68;;;3.72;;
37288;SDS011;23174;49.462;11.000;2023-09-08T03:24:11;5.25;;;4.32;;
37288;SDS011;23174;49.462;11.000;2023-09-08T03:26:11;4.78;;;4.22;;
37288;SDS011;23174;49.462;11.000;2023-09-08T03:28:12;4.53;;;4.13;;
37288;SDS011;23174;49.462;11.000;2023-09-08T03:30:14;4.97;;;4.50;;
37288;SDS011;23174;49.462;11.000;2023-09-08T03:32:15;10.18;;;4.40;;
37288;SDS011;23174;49.462;11.000;2023-09-08T03:34:15;5.15;;;4.60;;
37288;SDS011;23174;49.462;11.000;2023-09-08T03:36:16;3.95;;;3.65;;
37288;SDS011;23174;49.462;11.000;2023-09-08T03:38:16;4.65;;;4.00;;
37288;SDS011;23174;49.462;11.000;2023-09-08T03:40:17;5.28;;;4.25;;
37288;SDS011;23174;49.462;11.000;2023-09-08T03:42:17;4.75;;;4.35;;
37288;SDS011;23174;49.462;11.000;2023-09-08T03:44:18;7.95;;;4.15;;
37288;SDS011;23174;49.462;11.000;2023-09-08T03:46:18;6.65;;;4.55;;
37288;SDS011;23174;49.462;11.000;2023-09-08T03:48:19;5.88;;;4.40;;
37288;SDS011;23174;49.462;11.000;2023-09-08T03:50:19;5.18;;;4.40;;
37288;SDS011;23174;49.462;11.000;2023-09-08T03:52:20;5.35;;;4.85;;
37288;SDS011;23174;49.462;11.000;2023-09-08T03:54:20;7.40;;;4.68;;
37288;SDS011;23174;49.462;11.000;2023-09-08T03:56:21;5.72;;;5.10;;
37288;SDS011;23174;49.462;11.000;2023-09-08T03:58:21;4.63;;;4.22;;
37288;SDS011;23174;49.462;11.000;2023-09-08T04:00:22;7.32;;;5.00;;
37288;SDS011;23174;49.462;11.000;2023-09-08T04:02:22;6.20;;;4.50;;
37288;SDS011;23174;49.462;11.000;2023-09-08T04:04:23;8.20;;;4.82;;
37288;SDS011;23174;49.462;11.000;2023-09-08T04:06:23;5.68;;;4.60;;
37288;SDS011;23174;49.462;11.000;2023-09-08T04:08:24;4.53;;;4.20;;
37288;SDS011;23174;49.462;11.000;2023-09-08T04:10:25;4.95;;;4.38;;
37288;SDS011;23174;49.462;11.000;2023-09-08T04:12:25;4.88;;;4.28;;
37288;SDS011;23174;49.462;11.000;2023-09-08T04:14:26;7.65;;;5.20;;
37288;SDS011;23174;49.462;11.000;2023-09-08T04:16:28;4.95;;;4.47;;
37288;SDS011;23174;49.462;11.000;2023-09-08T04:18:29;4.88;;;4.47;;
37288;SDS011;23174;49.462;11.000;2023-09-08T04:20:29;5.22;;;4.80;;
37288;SDS011;23174;49.462;11.000;2023-09-08T04:22:30;5.10;;;4.70;;
37288;SDS011;23174;49.462;11.000;2023-09-08T04:24:34;5.10;;;4.63;;
37288;SDS011;23174;49.462;11.000;2023-09-08T04:26:36;6.00;;;4.70;;
37288;SDS011;23174;49.462;11.000;2023-09-08T04:28:37;5.38;;;4.40;;
37288;SDS011;23174;49.462;11.000;2023-09-08T04:30:37;7.25;;;4.90;;
37288;SDS011;23174;49.462;11.000;2023-09-08T04:32:38;6.35;;;4.78;;
37288;SDS011;23174;49.462;11.000;2023-09-08T04:34:39;4.68;;;4.28;;
37288;SDS011;23174;49.462;11.000;2023-09-08T04:36:40;6.47;;;4.50;;
37288;SDS011;23174;49.462;11.000;2023-09-08T04:38:41;4.80;;;4.47;;
37288;SDS011;23174;49.462;11.000;2023-09-08T04:40:41;5.97;;;5.20;;
37288;SDS011;23174;49.462;11.000;2023-09-08T04:42:44;6.10;;;4.90;;
37288;SDS011;23174;49.462;11.000;2023-09-08T04:44:45;9.75;;;5.07;;
37288;SDS011;23174;49.462;11.000;2023-09-08T04:46:45;5.40;;;4.63;;
37288;SDS011;23174;49.462;11.000;2023-09-08T04:50:54;6.85;;;4.50;;
37288;SDS011;23174;49.462;11.000;2023-09-08T04:52:56;4.88;;;4.47;;
37288;SDS011;23174;49.462;11.000;2023-09-08T04:54:56;4.88;;;4.43;;
37288;SDS011;23174;49.462;11.000;2023-09-08T04:56:57;6.05;;;4.20;;
37288;SDS011;23174;49.462;11.000;2023-09-08T04:58:57;5.47;;;5.03;;
37288;SDS011;23174;49.462;11.000;2023-09-08T05:01:00;4.82;;;4.43;;
37288;SDS011;23174;49.462;11.000;2023-09-08T05:03:01;4.97;;;4.47;;
37288;SDS011;23174;49.462;11.000;2023-09-08T05:05:01;6.28;;;4.57;;
37288;SDS011;23174;49.462;11.000;2023-09-08T05:07:02;10.23;;;5.60;;
37288;SDS011;23174;49.462;11.000;2023-09-08T05:09:03;7.00;;;5.07;;
37288;SDS011;23174;49.462;11.000;2023-09-08T05:11:03;6.43;;;5.82;;
37288;SDS011;23174;49.462;11.000;2023-09-08T05:13:04;7.20;;;5.60;;
37288;SDS011;23174;49.462;11.000;2023-09-08T05:15:04;7.20;;;5.43;;
37288;SDS011;23174;49.462;11.000;2023-09-08T05:17:10;5.35;;;4.95;;
37288;SDS011;23174;49.462;11.000;2023-09-08T05:19:11;5.80;;;5.30;;
37288;SDS011;23174;49.462;11.000;2023-09-08T05:21:13;6.57;;;5.28;;
37288;SDS011;23174;49.462;11.000;2023-09-08T05:23:14;6.50;;;5.03;;
37288;SDS011;23174;49.462;11.000;2023-09-08T05:25:14;9.00;;;4.47;;
37288;SDS011;23174;49.462;11.000;2023-09-08T05:27:15;12.60;;;5.15;;
37288;SDS011;23174;49.462;11.000;2023-09-08T05:29:16;8.68;;;4.97;;
37288;SDS011;23174;49.462;11.000;2023-09-08T05:31:17;7.75;;;5.03;;
37288;SDS011;23174;49.462;11.000;2023-09-08T05:33:17;6.38;;;5.00;;
37288;SDS011;23174;49.462;11.000;2023-09-08T05:35:18;7.32;;;5.60;;
37288;SDS011;23174;49.462;11.000;2023-09-08T05:37:18;6.70;;;5.38;;
37288;SDS011;23174;49.462;11.000;2023-09-08T05:39:18;5.53;;;4.97;;
37288;SDS011;23174;49.462;11.000;2023-09-08T05:41:19;6.53;;;4.63;;
37288;SDS011;23174;49.462;11.000;2023-09-08T05:43:19;6.15;;;4.55;;
37288;SDS011;23174;49.462;11.000;2023-09-08T05:45:20;12.43;;;5.40;;
37288;SDS011;23174;49.462;11.000;2023-09-08T05:47:21;6.05;;;5.47;;
37288;SDS011;23174;49.462;11.000;2023-09-08T05:49:21;7.78;;;5.68;;
37288;SDS011;23174;49.462;11.000;2023-09-08T05:51:22;6.22;;;5.65;;
37288;SDS011;23174;49.462;11.000;2023-09-08T05:53:22;10.23;;;5.43;;
37288;SDS011;23174;49.462;11.000;2023-09-08T05:55:23;7.57;;;6.10;;
37288;SDS011;23174;49.462;11.000;2023-09-08T05:57:23;7.03;;;5.70;;
37288;SDS011;23174;49.462;11.000;2023-09-08T05:59:24;12.13;;;5.90;;
37288;SDS011;23174;49.462;11.000;2023-09-08T06:01:24;16.45;;;5.70;;
37288;SDS011;23174;49.462;11.000;2023-09-08T06:03:25;9.07;;;6.13;;
37288;SDS011;23174;49.462;11.000;2023-09-08T06:05:26;10.98;;;6.10;;
37288;SDS011;23174;49.462;11.000;2023-09-08T06:07:26;11.55;;;6.10;;
37288;SDS011;23174;49.462;11.000;2023-09-08T06:09:28;13.55;;;6.22;;
37288;SDS011;23174;49.462;11.000;2023-09-08T06:11:28;0.63;;;0.63;;
37288;SDS011;23174;49.462;11.000;2023-09-08T06:13:29;1.38;;;1.27;;
37288;SDS011;23174;49.462;11.000;2023-09-08T06:15:29;0.50;;;0.50;;
37288;SDS011;23174;49.462;11.000;2023-09-08T06:17:30;0.52;;;0.52;;
37288;SDS011;23174;49.462;11.000;2023-09-08T06:19:30;1.92;;;1.42;;
37288;SDS011;23174;49.462;11.000;2023-09-08T06:21:31;1.85;;;1.55;;
37288;SDS011;23174;49.462;11.000;2023-09-08T06:23:32;1.08;;;1.08;;
37288;SDS011;23174;49.462;11.000;2023-09-08T06:25:33;1.10;;;1.05;;
37288;SDS011;23174;49.462;11.000;2023-09-08T06:27:33;0.57;;;0.57;;
37288;SDS011;23174;49.462;11.000;2023-09-08T06:29:34;0.75;;;0.75;;
37288;SDS011;23174;49.462;11.000;2023-09-08T06:31:34;0.80;;;0.80;;
37288;SDS011;23174;49.462;11.000;2023-09-08T06:33:35;2.10;;;1.02;;
37288;SDS011;23174;49.462;11.000;2023-09-08T06:35:35;1.58;;;0.73;;
37288;SDS011;23174;49.462;11.000;2023-09-08T06:37:36;0.95;;;0.90;;
37288;SDS011;23174;49.462;11.000;2023-09-08T06:39:37;1.80;;;1.58;;
37288;SDS011;23174;49.462;11.000;2023-09-08T06:41:38;0.47;;;0.47;;
37288;SDS011;23174;49.462;11.000;2023-09-08T06:43:38;0.82;;;0.82;;
37288;SDS011;23174;49.462;11.000;2023-09-08T06:45:39;0.63;;;0.63;;
37288;SDS011;23174;49.462;11.000;2023-09-08T06:47:42;2.38;;;1.05;;
37288;SDS011;23174;49.462;11.000;2023-09-08T06:49:43;4.40;;;2.83;;
37288;SDS011;23174;49.462;11.000;2023-09-08T06:51:43;3.67;;;2.67;;
37288;SDS011;23174;49.462;11.000;2023-09-08T06:53:44;3.28;;;1.13;;
37288;SDS011;23174;49.462;11.000;2023-09-08T06:55:44;0.75;;;0.75;;
37288;SDS011;23174;49.462;11.000;2023-09-08T06:57:45;2.55;;;2.03;;
37288;SDS011;23174;49.462;11.000;2023-09-08T06:59:46;1.27;;;1.17;;
37288;SDS011;23174;49.462;11.000;2023-09-08T07:01:46;4.75;;;1.60;;
37288;SDS011;23174;49.462;11.000;2023-09-08T07:03:47;0.60;;;0.60;;
37288;SDS011;23174;49.462;11.000;2023-09-08T07:05:47;2.58;;;2.20;;
37288;SDS011;23174;49.462;11.000;2023-09-08T07:07:49;4.95;;;3.58;;
37288;SDS011;23174;49.462;11.000;2023-09-08T07:09:49;2.25;;;0.88;;
37288;SDS011;23174;49.462;11.000;2023-09-08T07:11:50;1.23;;;0.50;;
37288;SDS011;23174;49.462;11.000;2023-09-08T07:13:50;1.00;;;1.00;;
37288;SDS011;23174;49.462;11.000;2023-09-08T07:15:51;2.55;;;2.30;;
37288;SDS011;23174;49.462;11.000;2023-09-08T07:17:51;5.25;;;3.00;;
37288;SDS011;23174;49.462;11.000;2023-09-08T07:19:52;4.03;;;1.83;;
37288;SDS011;23174;49.462;11.000;2023-09-08T07:21:52;1.25;;;1.17;;
37288;SDS011;23174;49.462;11.000;2023-09-08T07:23:53;1.13;;;0.70;;
37288;SDS011;23174;49.462;11.000;2023-09-08T07:25:56;0.95;;;0.95;;
37288;SDS011;23174;49.462;11.000;2023-09-08T07:27:57;0.60;;;0.60;;
37288;SDS011;23174;49.462;11.000;2023-09-08T07:29:57;5.13;;;1.52;;
37288;SDS011;23174;49.462;11.000;2023-09-08T07:31:58;0.77;;;0.57;;
37288;SDS011;23174;49.462;11.000;2023-09-08T07:33:58;2.67;;;2.47;;
37288;SDS011;23174;49.462;11.000;2023-09-08T07:36:03;1.23;;;1.13;;
37288;SDS011;23174;49.462;11.000;2023-09-08T07:38:07;1.70;;;0.75;;
37288;SDS011;23174;49.462;11.000;2023-09-08T07:40:11;2.80;;;1.92;;
37288;SDS011;23174;49.462;11.000;2023-09-08T07:42:11;2.30;;;1.92;;
37288;SDS011;23174;49.462;11.000;2023-09-08T07:44:12;4.30;;;2.55;;
37288;SDS011;23174;49.462;11.000;2023-09-08T07:46:13;2.97;;;2.47;;
37288;SDS011;23174;49.462;11.000;2023-09-08T07:48:13;0.43;;;0.43;;
37288;SDS011;23174;49.462;11.000;2023-09-08T07:50:18;9.02;;;1.40;;
37288;SDS011;23174;49.462;11.000;2023-09-08T07:52:26;1.67;;;0.73;;
37288;SDS011;23174;49.462;11.000;2023-09-08T07:54:27;0.73;;;0.73;;
37288;SDS011;23174;49.462;11.000;2023-09-08T07:56:27;0.90;;;0.90;;
37288;SDS011;23174;49.462;11.000;2023-09-08T07:58:28;2.55;;;2.10;;
37288;SDS011;23174;49.462;11.000;2023-09-08T08:00:28;0.70;;;0.70;;
37288;SDS011;23174;49.462;11.000;2023-09-08T08:02:29;2.35;;;2.15;;
37288;SDS011;23174;49.462;11.000;2023-09-08T08:04:31;4.50;;;1.70;;
37288;SDS011;23174;49.462;11.000;2023-09-08T08:06:31;2.83;;;2.63;;
37288;SDS011;23174;49.462;11.000;2023-09-08T08:08:32;1.75;;;0.88;;
37288;SDS011;23174;49.462;11.000;2023-09-08T08:10:32;0.95;;;0.95;;
37288;SDS011;23174;49.462;11.000;2023-09-08T08:12:33;1.13;;;0.80;;
37288;SDS011;23174;49.462;11.000;2023-09-08T08:14:33;2.60;;;2.22;;
37288;SDS011;23174;49.462;11.000;2023-09-08T08:16:34;1.02;;;0.93;;
37288;SDS011;23174;49.462;11.000;2023-09-08T08:18:35;1.95;;;1.50;;
37288;SDS011;23174;49.462;11.000;2023-09-08T08:20:37;3.75;;;1.48;;
37288;SDS011;23174;49.462;11.000;2023-09-08T08:22:38;0.73;;;0.73;;
37288;SDS011;23174;49.462;11.000;2023-09-08T08:24:38;3.17;;;1.70;;
37288;SDS011;23174;49.462;11.000;2023-09-08T08:26:39;2.53;;;1.90;;
37288;SDS011;23174;49.462;11.000;2023-09-08T08:28:39;0.63;;;0.52;;
37288;SDS011;23174;49.462;11.000;2023-09-08T08:30:40;1.95;;;1.20;;
37288;SDS011;23174;49.462;11.000;2023-09-08T08:32:40;1.35;;;1.25;;
37288;SDS011;23174;49.462;11.000;2023-09-08T08:34:41;0.77;;;0.68;;
37288;SDS011;23174;49.462;11.000;2023-09-08T08:36:41;0.77;;;0.75;;
37288;SDS011;23174;49.462;11.000;2023-09-08T08:38:42;1.83;;;1.67;;
37288;SDS011;23174;49.462;11.000;2023-09-08T08:40:42;1.20;;;1.10;;
37288;SDS011;23174;49.462;11.000;2023-09-08T08:42:43;0.60;;;0.60;;
37288;SDS011;23174;49.462;11.000;2023-09-08T08:44:44;4.15;;;2.15;;
37288;SDS011;23174;49.462;11.000;2023-09-08T08:46:45;1.08;;;1.08;;
37288;SDS011;23174;49.462;11.000;2023-09-08T08:48:48;2.63;;;2.42;;
37288;SDS011;23174;49.462;11.000;2023-09-08T08:50:49;1.08;;;0.60;;
37288;SDS011;23174;49.462;11.000;2023-09-08T08:52:51;3.20;;;1.98;;
37288;SDS011;23174;49.462;11.000;2023-09-08T08:54:52;1.20;;;1.13;;
37288;SDS011;23174;49.462;11.000;2023-09-08T08:56:54;1.92;;;1.83;;
37288;SDS011;23174;49.462;11.000;2023-09-08T08:58:54;1.70;;;1.60;;
37288;SDS011;23174;49.462;11.000;2023-09-08T09:00:55;0.60;;;0.60;;
37288;SDS011;23174;49.462;11.000;2023-09-08T09:02:58;1.23;;;1.10;;
37288;SDS011;23174;49.462;11.000;2023-09-08T09:05:00;2.63;;;1.20;;
37288;SDS011;23174;49.462;11.000;2023-09-08T09:07:00;4.07;;;1.75;;
37288;SDS011;23174;49.462;11.000;2023-09-08T09:09:01;4.35;;;2.00;;
37288;SDS011;23174;49.462;11.000;2023-09-08T09:11:04;2.70;;;1.42;;
37288;SDS011;23174;49.462;11.000;2023-09-08T09:13:04;1.90;;;1.73;;
37288;SDS011;23174;49.462;11.000;2023-09-08T09:15:05;12.40;;;2.00;;
37288;SDS011;23174;49.462;11.000;2023-09-08T09:17:10;1.42;;;1.33;;
37288;SDS011;23174;49.462;11.000;2023-09-08T09:19:17;6.40;;;3.78;;
37288;SDS011;23174;49.462;11.000;2023-09-08T09:21:42;3.78;;;3.47;;
37288;SDS011;23174;49.462;11.000;2023-09-08T09:23:43;4.18;;;3.78;;
37288;SDS011;23174;49.462;11.000;2023-09-08T09:25:44;6.32;;;4.00;;
37288;SDS011;23174;49.462;11.000;2023-09-08T09:27:49;5.63;;;3.92;;
37288;SDS011;23174;49.462;11.000;2023-09-08T09:29:51;7.07;;;3.85;;
37288;SDS011;23174;49.462;11.000;2023-09-08T09:31:55;4.25;;;3.83;;
37288;SDS011;23174;49.462;11.000;2023-09-08T09:34:02;3.60;;;3.30;;
37288;SDS011;23174;49.462;11.000;2023-09-08T09:36:04;5.15;;;3.28;;
37288;SDS011;23174;49.462;11.000;2023-09-08T09:38:06;4.43;;;4.03;;
37288;SDS011;23174;49.462;11.000;2023-09-08T09:40:08;4.75;;;3.42;;
37288;SDS011;23174;49.462;11.000;2023-09-08T09:42:10;5.35;;;3.95;;
37288;SDS011;23174;49.462;11.000;2023-09-08T09:44:11;4.28;;;3.75;;
37288;SDS011;23174;49.462;11.000;2023-09-08T09:46:11;4.20;;;3.80;;
37288;SDS011;23174;49.462;11.000;2023-09-08T09:48:12;4.18;;;3.88;;
37288;SDS011;23174;49.462;11.000;2023-09-08T09:50:13;4.55;;;4.07;;
37288;SDS011;23174;49.462;11.000;2023-09-08T09:52:19;4.43;;;3.90;;
37288;SDS011;23174;49.462;11.000;2023-09-08T09:54:22;4.88;;;3.40;;
37288;SDS011;23174;49.462;11.000;2023-09-08T09:56:23;3.60;;;3.30;;
37288;SDS011;23174;49.462;11.000;2023-09-08T09:58:24;5.75;;;3.17;;
37288;SDS011;23174;49.462;11.000;2023-09-08T10:00:26;3.97;;;3.33;;
37288;SDS011;23174;49.462;11.000;2023-09-08T10:02:27;4.00;;;3.70;;
37288;SDS011;23174;49.462;11.000;2023-09-08T10:04:30;4.63;;;3.08;;
37288;SDS011;23174;49.462;11.000;2023-09-08T10:06:33;4.63;;;3.30;;
37288;SDS011;23174;49.462;11.000;2023-09-08T10:08:37;2.90;;;2.63;;
37288;SDS011;23174;49.462;11.000;2023-09-08T10:10:37;6.07;;;3.60;;
37288;SDS011;23174;49.462;11.000;2023-09-08T10:12:43;3.80;;;3.40;;
37288;SDS011;23174;49.462;11.000;2023-09-08T10:14:45;5.60;;;3.53;;
37288;SDS011;23174;49.462;11.000;2023-09-08T10:16:52;4.35;;;3.17;;
37288;SDS011;23174;49.462;11.000;2023-09-08T10:18:57;5.25;;;3.70;;
37288;SDS011;23174;49.462;11.000;2023-09-08T10:21:00;4.65;;;3.53;;
37288;SDS011;23174;49.462;11.000;2023-09-08T10:23:12;3.72;;;3.38;;
37288;SDS011;23174;49.462;11.000;2023-09-08T10:25:18;2.63;;;2.13;;
37288;SDS011;23174;49.462;11.000;2023-09-08T10:27:22;3.28;;;2.60;;
37288;SDS011;23174;49.462;11.000;2023-09-08T10:29:23;3.53;;;2.95;;
37288;SDS011;23174;49.462;11.000;2023-09-08T10:31:26;3.92;;;3.53;;
37288;SDS011;23174;49.462;11.000;2023-09-08T10:33:28;3.20;;;3.00;;
37288;SDS011;23174;49.462;11.000;2023-09-08T10:35:30;3.47;;;3.10;;
37288;SDS011;23174;49.462;11.000;2023-09-08T10:37:31;2.80;;;2.58;;
37288;SDS011;23174;49.462;11.000;2023-09-08T10:39:33;3.72;;;3.42;;
37288;SDS011;23174;49.462;11.000;2023-09-08T10:41:39;4.97;;;3.40;;
37288;SDS011;23174;49.462;11.000;2023-09-08T10:43:44;3.38;;;3.08;;
37288;SDS011;23174;49.462;11.000;2023-09-08T10:45:46;3.63;;;3.33;;
37288;SDS011;23174;49.462;11.000;2023-09-08T10:49:47;3.22;;;3.03;;
37288;SDS011;23174;49.462;11.000;2023-09-08T10:51:50;3.13;;;2.92;;
37288;SDS011;23174;49.462;11.000;2023-09-08T10:53:50;3.15;;;2.95;;
37288;SDS011;23174;49.462;11.000;2023-09-08T10:55:52;3.92;;;3.25;;
37288;SDS011;23174;49.462;11.000;2023-09-08T10:57:54;3.53;;;3.05;;
37288;SDS011;23174;49.462;11.000;2023-09-08T10:59:57;3.47;;;3.17;;
37288;SDS011;23174;49.462;11.000;2023-09-08T11:02:05;3.72;;;2.72;;
37288;SDS011;23174;49.462;11.000;2023-09-08T11:04:05;9.05;;;3.05;;
37288;SDS011;23174;49.462;11.000;2023-09-08T11:06:11;2.78;;;2.58;;
37288;SDS011;23174;49.462;11.000;2023-09-08T11:08:11;4.18;;;2.75;;
37288;SDS011;23174;49.462;11.000;2023-09-08T11:10:14;5.80;;;3.05;;
37288;SDS011;23174;49.462;11.000;2023-09-08T11:12:15;3.42;;;3.10;;
37288;SDS011;23174;49.462;11.000;2023-09-08T11:14:16;6.03;;;2.88;;
37288;SDS011;23174;49.462;11.000;2023-09-08T11:16:17;4.00;;;2.97;;
37288;SDS011;23174;49.462;11.000;2023-09-08T11:18:30;3.80;;;3.03;;
37288;SDS011;23174;49.462;11.000;2023-09-08T11:20:34;5.15;;;3.38;;
37288;SDS011;23174;49.462;11.000;2023-09-08T11:22:35;6.25;;;3.33;;
37288;SDS011;23174;49.462;11.000;2023-09-08T11:24:37;3.20;;;2.90;;
37288;SDS011;23174;49.462;11.000;2023-09-08T11:26:38;4.47;;;3.00;;
37288;SDS011;23174;49.462;11.000;2023-09-08T11:28:39;6.75;;;2.72;;
37288;SDS011;23174;49.462;11.000;2023-09-08T11:30:41;4.07;;;2.50;;
37288;SDS011;23174;49.462;11.000;2023-09-08T11:32:42;3.47;;;3.22;;
37288;SDS011;23174;49.462;11.000;2023-09-08T11:34:42;4.32;;;3.00;;
37288;SDS011;23174;49.462;11.000;2023-09-08T11:36:43;3.90;;;3.60;;
37288;SDS011;23174;49.462;11.000;2023-09-08T11:38:43;3.50;;;3.20;;
37288;SDS011;23174;49.462;11.000;2023-09-08T11:40:45;4.43;;;3.45;;
37288;SDS011;23174;49.462;11.000;2023-09-08T11:42:46;4.00;;;3.70;;
37288;SDS011;23174;49.462;11.000;2023-09-08T11:44:47;8.63;;;3.80;;
37288;SDS011;23174;49.462;11.000;2023-09-08T11:46:49;6.88;;;3.38;;
37288;SDS011;23174;49.462;11.000;2023-09-08T11:48:49;3.80;;;3.50;;
37288;SDS011;23174;49.462;11.000;2023-09-08T11:50:53;5.07;;;3.63;;
37288;SDS011;23174;49.462;11.000;2023-09-08T11:52:54;4.38;;;3.92;;
37288;SDS011;23174;49.462;11.000;2023-09-08T11:54:54;6.25;;;3.75;;
37288;SDS011;23174;49.462;11.000;2023-09-08T11:56:55;4.50;;;4.00;;
37288;SDS011;23174;49.462;11.000;2023-09-08T11:58:57;5.55;;;3.55;;
37288;SDS011;23174;49.462;11.000;2023-09-08T12:00:58;6.13;;;3.65;;
37288;SDS011;23174;49.462;11.000;2023-09-08T12:03:11;5.45;;;3.45;;
37288;SDS011;23174;49.462;11.000;2023-09-08T12:05:25;5.00;;;3.00;;
37288;SDS011;23174;49.462;11.000;2023-09-08T12:07:27;6.70;;;3.92;;